Terminal Aerodrome Forecast
Issued by NWS Quad Cities IA IL

Home | Current Version | Previous Version | Text Only | Print | Product List | Glossary On
Versions: 1 2 3 4 5 6 7 8 9 10 11 12 13 14 15 16 17 18 19 20 21
000
FTUS43 KDVN 251624 AAB
TAFDBQ
TAF AMD
KDBQ 251624Z 2516/2612 23016G23KT P6SM SCT008 BKN015
      TEMPO 2517/2518 BKN025
     FM251800 22018G26KT P6SM SCT025 BKN040
     FM252300 21012KT P6SM SCT040 BKN250
     FM260400 18008KT P6SM BKN050 PROB30 2606/2612 5SM SHRA BKN030=

USA.gov is the U.S. government's official web portal to all federal, state and local government web resources and services.